SBI7520 ZWWW-ZJSY
Flight info
| Callsign | SBI7520 |
|---|---|
| Flight time | 4h 43m |
| Altitude | 37100 |
| Route | ZWWW N0440F371 FKG01D FKG W192 LUPRO V116 ESDEX W191 DNC QNX V86 BSE R339 WUY W169 RUNEG V41 DABUB DAB8ZA SYS501 SYS504 FF26 RW26 ZJSY |
| Aircraft | B738/M-SDGIWZ/S |
Departure
| Time | 2026-04-28 05:23 |
|---|---|
| Airport | Ürümqi Tianshan International Airport (ZWWW) |
Arrival
| Time | 2026-04-28 10:07 |
|---|---|
| Airport | Sanya Phoenix International Airport (ZJSY) |
| Time | Latitude | Longitude | Altitude | Speed | Heading |
|---|---|---|---|---|---|
| 2026-04-28 05:13 | 43.89740 | 87.46400 | 2134 ft | 0 kts | 180° |
| 2026-04-28 05:18 | 43.89755 | 87.46400 | 2134 ft | 3 kts | 180° |
| 2026-04-28 05:18 | 43.89778 | 87.46402 | 2134 ft | 2 kts | 229° |
| 2026-04-28 05:18 | 43.89780 | 87.46431 | 2134 ft | 1 kts | 272° |
| 2026-04-28 05:19 | 43.89780 | 87.46423 | 2134 ft | 4 kts | 274° |
| 2026-04-28 05:19 | 43.89784 | 87.46343 | 2134 ft | 12 kts | 270° |
| 2026-04-28 05:19 | 43.89784 | 87.46209 | 2134 ft | 15 kts | 270° |
| 2026-04-28 05:19 | 43.89784 | 87.46058 | 2134 ft | 13 kts | 278° |
| 2026-04-28 05:20 | 43.89844 | 87.45998 | 2134 ft | 10 kts | 342° |
| 2026-04-28 05:20 | 43.89905 | 87.45972 | 2134 ft | 8 kts | 343° |
| 2026-04-28 05:20 | 43.89957 | 87.45952 | 2134 ft | 8 kts | 343° |
| 2026-04-28 05:20 | 43.90027 | 87.45923 | 2134 ft | 12 kts | 342° |
| 2026-04-28 05:21 | 43.90118 | 87.45883 | 2134 ft | 15 kts | 343° |
| 2026-04-28 05:21 | 43.90190 | 87.45802 | 2134 ft | 15 kts | 262° |
| 2026-04-28 05:21 | 43.90160 | 87.45655 | 2134 ft | 16 kts | 253° |
| 2026-04-28 05:21 | 43.90125 | 87.45487 | 2134 ft | 19 kts | 253° |
| 2026-04-28 05:22 | 43.90135 | 87.45342 | 2134 ft | 14 kts | 334° |
| 2026-04-28 05:22 | 43.90222 | 87.45303 | 2134 ft | 12 kts | 348° |
| 2026-04-28 05:22 | 43.90277 | 87.45367 | 2134 ft | 12 kts | 71° |
| 2026-04-28 05:22 | 43.90358 | 87.45745 | 2134 ft | 75 kts | 74° |
| 2026-04-28 05:23 | 43.90567 | 87.46733 | 2134 ft | 135 kts | 75° |
| 2026-04-28 05:23 | 43.90875 | 87.48196 | 2162 ft | 178 kts | 75° |
| 2026-04-28 05:23 | 43.91302 | 87.49940 | 2428 ft | 200 kts | 75° |
| 2026-04-28 05:23 | 43.91782 | 87.51783 | 2909 ft | 209 kts | 73° |
| 2026-04-28 05:24 | 43.92299 | 87.53632 | 3659 ft | 205 kts | 70° |
| 2026-04-28 05:24 | 43.92908 | 87.55475 | 3896 ft | 226 kts | 68° |
| 2026-04-28 05:24 | 43.93589 | 87.57554 | 4162 ft | 244 kts | 69° |
| 2026-04-28 05:24 | 43.94307 | 87.59752 | 4621 ft | 255 kts | 68° |
| 2026-04-28 05:25 | 43.95067 | 87.62020 | 5226 ft | 263 kts | 67° |
| 2026-04-28 05:25 | 43.95855 | 87.64300 | 5909 ft | 268 kts | 62° |
| 2026-04-28 05:25 | 43.97037 | 87.66309 | 6566 ft | 273 kts | 42° |
| 2026-04-28 05:25 | 43.98418 | 87.68040 | 7308 ft | 273 kts | 45° |
| 2026-04-28 05:26 | 43.99742 | 87.70011 | 7892 ft | 279 kts | 48° |
| 2026-04-28 05:26 | 44.01018 | 87.72018 | 8615 ft | 279 kts | 47° |
| 2026-04-28 05:26 | 44.02287 | 87.74021 | 9265 ft | 280 kts | 47° |
| 2026-04-28 05:26 | 44.03556 | 87.76046 | 9903 ft | 282 kts | 47° |
| 2026-04-28 05:27 | 44.04850 | 87.78123 | 10546 ft | 283 kts | 47° |
| 2026-04-28 05:27 | 44.06117 | 87.80162 | 11176 ft | 283 kts | 47° |
| 2026-04-28 05:27 | 44.07398 | 87.82225 | 11789 ft | 284 kts | 47° |
| 2026-04-28 05:27 | 44.08688 | 87.84307 | 12374 ft | 285 kts | 47° |
| 2026-04-28 05:28 | 44.09989 | 87.86409 | 12897 ft | 288 kts | 47° |
| 2026-04-28 05:28 | 44.11300 | 87.88531 | 13433 ft | 290 kts | 47° |
| 2026-04-28 05:28 | 44.12611 | 87.90656 | 13944 ft | 293 kts | 47° |
| 2026-04-28 05:28 | 44.13936 | 87.92806 | 14445 ft | 295 kts | 47° |
| 2026-04-28 05:29 | 44.15261 | 87.94957 | 14930 ft | 297 kts | 46° |
| 2026-04-28 05:29 | 44.16602 | 87.97137 | 15408 ft | 299 kts | 46° |
| 2026-04-28 05:29 | 44.17907 | 87.99438 | 15795 ft | 307 kts | 57° |
| 2026-04-28 05:29 | 44.18652 | 88.02307 | 15828 ft | 329 kts | 84° |
| 2026-04-28 05:30 | 44.18381 | 88.05529 | 15913 ft | 346 kts | 109° |
| 2026-04-28 05:30 | 44.17199 | 88.08476 | 15955 ft | 361 kts | 132° |
| 2026-04-28 05:30 | 44.15197 | 88.10620 | 16005 ft | 372 kts | 158° |
| 2026-04-28 05:30 | 44.12691 | 88.11595 | 16055 ft | 382 kts | 176° |
| 2026-04-28 05:31 | 44.09985 | 88.11829 | 16105 ft | 395 kts | 176° |
| 2026-04-28 05:31 | 44.07272 | 88.12762 | 16191 ft | 409 kts | 156° |
| 2026-04-28 05:31 | 44.04962 | 88.15042 | 16543 ft | 414 kts | 133° |
| 2026-04-28 05:31 | 44.03407 | 88.18397 | 16831 ft | 418 kts | 110° |
| 2026-04-28 05:32 | 44.02821 | 88.22343 | 17205 ft | 418 kts | 93° |
| 2026-04-28 05:32 | 44.02587 | 88.26319 | 17519 ft | 422 kts | 96° |
| 2026-04-28 05:32 | 44.02008 | 88.30342 | 17864 ft | 424 kts | 105° |
| 2026-04-28 05:32 | 44.01052 | 88.34206 | 18176 ft | 428 kts | 112° |
| 2026-04-28 05:33 | 43.99795 | 88.37983 | 18557 ft | 428 kts | 116° |
| 2026-04-28 05:33 | 43.98417 | 88.41625 | 18824 ft | 432 kts | 118° |
| 2026-04-28 05:33 | 43.96970 | 88.45255 | 19178 ft | 433 kts | 119° |
| 2026-04-28 05:33 | 43.95456 | 88.48912 | 19451 ft | 436 kts | 120° |
| 2026-04-28 05:34 | 43.93928 | 88.52517 | 19763 ft | 438 kts | 120° |
| 2026-04-28 05:34 | 43.92370 | 88.56163 | 20074 ft | 439 kts | 120° |
| 2026-04-28 05:34 | 43.90813 | 88.59789 | 20327 ft | 442 kts | 121° |
| 2026-04-28 05:34 | 43.89232 | 88.63456 | 20638 ft | 443 kts | 121° |
| 2026-04-28 05:35 | 43.87638 | 88.67136 | 20906 ft | 445 kts | 121° |
| 2026-04-28 05:35 | 43.86050 | 88.70789 | 21150 ft | 447 kts | 121° |
| 2026-04-28 05:35 | 43.84444 | 88.74477 | 21409 ft | 448 kts | 121° |
| 2026-04-28 05:35 | 43.82830 | 88.78173 | 21647 ft | 450 kts | 122° |
| 2026-04-28 05:36 | 43.81213 | 88.81870 | 21882 ft | 452 kts | 122° |
| 2026-04-28 05:36 | 43.79590 | 88.85573 | 22063 ft | 455 kts | 122° |
| 2026-04-28 05:36 | 43.77934 | 88.89346 | 22273 ft | 457 kts | 122° |
| 2026-04-28 05:36 | 43.76298 | 88.93066 | 22467 ft | 459 kts | 122° |
| 2026-04-28 05:37 | 43.74629 | 88.96858 | 22651 ft | 462 kts | 122° |
| 2026-04-28 05:37 | 43.72965 | 89.00631 | 22825 ft | 465 kts | 122° |
| 2026-04-28 05:37 | 43.71283 | 89.04440 | 23030 ft | 466 kts | 122° |
| 2026-04-28 05:37 | 43.69593 | 89.08262 | 23212 ft | 468 kts | 122° |
| 2026-04-28 05:38 | 43.67887 | 89.12112 | 23446 ft | 469 kts | 122° |
| 2026-04-28 05:38 | 43.66172 | 89.15981 | 23640 ft | 471 kts | 122° |
| 2026-04-28 05:38 | 43.64518 | 89.19705 | 23831 ft | 472 kts | 122° |
| 2026-04-28 05:38 | 43.62809 | 89.23548 | 24011 ft | 473 kts | 122° |
| 2026-04-28 05:39 | 43.61091 | 89.27409 | 24220 ft | 474 kts | 122° |
| 2026-04-28 05:39 | 43.59367 | 89.31275 | 24398 ft | 476 kts | 122° |
| 2026-04-28 05:39 | 43.57637 | 89.35149 | 24564 ft | 477 kts | 122° |
| 2026-04-28 05:39 | 43.55886 | 89.39066 | 24750 ft | 478 kts | 122° |
| 2026-04-28 05:40 | 43.54155 | 89.42976 | 24921 ft | 479 kts | 121° |
| 2026-04-28 05:40 | 43.52454 | 89.46900 | 25078 ft | 481 kts | 121° |
| 2026-04-28 05:40 | 43.50747 | 89.50845 | 25260 ft | 482 kts | 121° |
| 2026-04-28 05:40 | 43.49023 | 89.54806 | 25414 ft | 483 kts | 121° |
| 2026-04-28 05:41 | 43.47298 | 89.58755 | 25566 ft | 484 kts | 121° |
| 2026-04-28 05:41 | 43.45560 | 89.62729 | 25722 ft | 485 kts | 121° |
| 2026-04-28 05:41 | 43.43808 | 89.66731 | 25878 ft | 486 kts | 122° |
| 2026-04-28 05:41 | 43.42066 | 89.70704 | 26019 ft | 487 kts | 122° |
| 2026-04-28 05:42 | 43.40335 | 89.74645 | 26147 ft | 488 kts | 122° |
| 2026-04-28 05:42 | 43.38564 | 89.78673 | 26277 ft | 489 kts | 122° |
| 2026-04-28 05:42 | 43.36815 | 89.82642 | 26421 ft | 490 kts | 122° |
| 2026-04-28 05:42 | 43.35056 | 89.86628 | 26550 ft | 491 kts | 122° |
| 2026-04-28 05:43 | 43.33278 | 89.90653 | 26634 ft | 493 kts | 122° |
| 2026-04-28 05:43 | 43.31503 | 89.94667 | 26783 ft | 493 kts | 122° |
| 2026-04-28 05:43 | 43.29737 | 89.98654 | 26911 ft | 494 kts | 122° |
| 2026-04-28 05:43 | 43.27950 | 90.02683 | 27026 ft | 494 kts | 122° |
| 2026-04-28 05:44 | 43.26162 | 90.06709 | 27141 ft | 495 kts | 122° |
| 2026-04-28 05:44 | 43.24363 | 90.10751 | 27256 ft | 496 kts | 122° |
| 2026-04-28 05:44 | 43.22586 | 90.14741 | 27345 ft | 497 kts | 122° |
| 2026-04-28 05:44 | 43.20784 | 90.18783 | 27473 ft | 497 kts | 122° |
| 2026-04-28 05:45 | 43.18980 | 90.22823 | 27600 ft | 498 kts | 122° |
| 2026-04-28 05:45 | 43.17166 | 90.26883 | 27721 ft | 498 kts | 122° |
| 2026-04-28 05:45 | 43.15376 | 90.30881 | 27821 ft | 499 kts | 122° |
| 2026-04-28 05:45 | 43.13551 | 90.34955 | 27911 ft | 500 kts | 122° |
| 2026-04-28 05:46 | 43.11736 | 90.38991 | 28040 ft | 500 kts | 122° |
| 2026-04-28 05:46 | 43.09910 | 90.43037 | 28109 ft | 501 kts | 122° |
| 2026-04-28 05:46 | 43.08102 | 90.47041 | 28231 ft | 501 kts | 122° |
| 2026-04-28 05:46 | 43.06285 | 90.51074 | 28444 ft | 499 kts | 122° |
| 2026-04-28 05:47 | 43.04472 | 90.55100 | 28609 ft | 498 kts | 122° |
| 2026-04-28 05:47 | 43.02654 | 90.59138 | 28679 ft | 499 kts | 122° |
| 2026-04-28 05:47 | 43.00839 | 90.63154 | 28897 ft | 497 kts | 122° |
| 2026-04-28 05:47 | 42.99031 | 90.67145 | 29079 ft | 495 kts | 123° |
| 2026-04-28 05:48 | 42.95402 | 90.75136 | 29320 ft | 495 kts | 123° |
| 2026-04-28 05:48 | 42.93590 | 90.79118 | 29499 ft | 493 kts | 123° |
| 2026-04-28 05:48 | 42.91787 | 90.83057 | 29617 ft | 493 kts | 124° |
| 2026-04-28 05:49 | 42.89751 | 90.86790 | 29743 ft | 491 kts | 132° |
| 2026-04-28 05:49 | 42.87374 | 90.90050 | 29871 ft | 488 kts | 142° |
| 2026-04-28 05:49 | 42.84602 | 90.92712 | 29973 ft | 485 kts | 152° |
| 2026-04-28 05:49 | 42.81706 | 90.94916 | 30168 ft | 482 kts | 154° |
| 2026-04-28 05:50 | 42.75879 | 90.99408 | 30286 ft | 484 kts | 152° |
| 2026-04-28 05:50 | 42.70047 | 91.03976 | 30419 ft | 486 kts | 152° |
| 2026-04-28 05:51 | 42.64195 | 91.08505 | 30587 ft | 486 kts | 152° |
| 2026-04-28 05:51 | 42.58295 | 91.13062 | 30739 ft | 487 kts | 152° |
| 2026-04-28 05:52 | 42.55394 | 91.15297 | 30856 ft | 487 kts | 152° |
| 2026-04-28 05:52 | 42.52439 | 91.17574 | 31115 ft | 482 kts | 153° |
| 2026-04-28 05:52 | 42.49575 | 91.19782 | 31566 ft | 473 kts | 153° |
| 2026-04-28 05:52 | 42.46722 | 91.21980 | 31644 ft | 473 kts | 153° |
| 2026-04-28 05:53 | 42.43869 | 91.24168 | 31773 ft | 472 kts | 154° |
| 2026-04-28 05:53 | 42.41010 | 91.26341 | 31853 ft | 472 kts | 154° |
| 2026-04-28 05:53 | 42.38171 | 91.28484 | 31968 ft | 471 kts | 154° |
| 2026-04-28 05:53 | 42.35300 | 91.30667 | 32046 ft | 472 kts | 154° |
| 2026-04-28 05:54 | 42.29629 | 91.35010 | 32198 ft | 472 kts | 153° |
| 2026-04-28 05:54 | 42.23930 | 91.39359 | 32350 ft | 472 kts | 153° |
| 2026-04-28 05:55 | 42.18225 | 91.43671 | 32506 ft | 472 kts | 154° |
| 2026-04-28 05:55 | 42.12495 | 91.48019 | 32658 ft | 472 kts | 153° |
| 2026-04-28 05:56 | 42.06828 | 91.52331 | 32808 ft | 472 kts | 153° |
| 2026-04-28 05:56 | 42.01123 | 91.56643 | 32960 ft | 472 kts | 153° |
| 2026-04-28 05:57 | 41.95401 | 91.60948 | 33105 ft | 472 kts | 153° |
| 2026-04-28 05:57 | 41.89700 | 91.65238 | 33263 ft | 472 kts | 154° |
| 2026-04-28 05:58 | 41.83990 | 91.69546 | 33401 ft | 472 kts | 154° |
| 2026-04-28 05:58 | 41.78285 | 91.73834 | 33563 ft | 471 kts | 154° |
| 2026-04-28 05:59 | 41.72595 | 91.78090 | 33690 ft | 471 kts | 154° |
| 2026-04-28 05:59 | 41.66914 | 91.82365 | 33820 ft | 471 kts | 152° |
| 2026-04-28 06:00 | 41.61823 | 91.87854 | 33936 ft | 477 kts | 129° |
| 2026-04-28 06:00 | 41.59968 | 91.91551 | 34044 ft | 477 kts | 123° |
| 2026-04-28 06:00 | 41.58231 | 91.95282 | 34099 ft | 477 kts | 124° |
| 2026-04-28 06:01 | 41.54615 | 92.02655 | 34214 ft | 477 kts | 125° |
| 2026-04-28 06:01 | 41.50985 | 92.10050 | 34339 ft | 477 kts | 124° |
| 2026-04-28 06:02 | 41.47409 | 92.17461 | 34474 ft | 476 kts | 124° |
| 2026-04-28 06:02 | 41.43857 | 92.24845 | 34592 ft | 476 kts | 124° |
| 2026-04-28 06:03 | 41.40283 | 92.32245 | 34705 ft | 476 kts | 124° |
| 2026-04-28 06:03 | 41.36687 | 92.39635 | 34821 ft | 476 kts | 124° |
| 2026-04-28 06:04 | 41.33080 | 92.47019 | 34935 ft | 476 kts | 124° |
| 2026-04-28 06:04 | 41.29456 | 92.54349 | 35054 ft | 476 kts | 124° |
| 2026-04-28 06:05 | 41.25834 | 92.61678 | 35184 ft | 475 kts | 124° |
| 2026-04-28 06:05 | 41.22260 | 92.68973 | 35310 ft | 474 kts | 124° |
| 2026-04-28 06:06 | 41.18680 | 92.76286 | 35445 ft | 473 kts | 125° |
| 2026-04-28 06:06 | 41.15054 | 92.83557 | 35565 ft | 472 kts | 125° |
| 2026-04-28 06:07 | 41.11456 | 92.90768 | 35680 ft | 471 kts | 125° |
| 2026-04-28 06:07 | 41.07882 | 92.97981 | 35806 ft | 470 kts | 125° |
| 2026-04-28 06:08 | 41.04318 | 93.05204 | 35928 ft | 469 kts | 126° |
| 2026-04-28 06:08 | 41.00741 | 93.12393 | 36041 ft | 468 kts | 127° |
| 2026-04-28 06:09 | 40.97158 | 93.19573 | 36141 ft | 468 kts | 127° |
| 2026-04-28 06:09 | 40.93584 | 93.26715 | 36242 ft | 467 kts | 128° |
| 2026-04-28 06:10 | 40.89999 | 93.33862 | 36342 ft | 466 kts | 128° |
| 2026-04-28 06:10 | 40.86436 | 93.40943 | 36441 ft | 466 kts | 127° |
| 2026-04-28 06:11 | 40.82850 | 93.48054 | 36541 ft | 465 kts | 127° |
| 2026-04-28 06:11 | 40.79268 | 93.55142 | 36640 ft | 465 kts | 128° |
| 2026-04-28 06:12 | 40.75680 | 93.62219 | 36740 ft | 464 kts | 128° |
| 2026-04-28 06:12 | 40.71799 | 93.68861 | 36840 ft | 459 kts | 134° |
| 2026-04-28 06:13 | 40.67770 | 93.75399 | 36940 ft | 459 kts | 133° |
| 2026-04-28 06:13 | 40.63804 | 93.81955 | 36992 ft | 459 kts | 133° |
| 2026-04-28 06:14 | 40.61820 | 93.85221 | 37093 ft | 456 kts | 133° |
| 2026-04-28 06:14 | 40.59850 | 93.88464 | 37088 ft | 457 kts | 133° |
| 2026-04-28 06:14 | 40.55895 | 93.94974 | 37093 ft | 458 kts | 133° |
| 2026-04-28 06:15 | 40.51921 | 94.01506 | 37093 ft | 459 kts | 133° |
| 2026-04-28 06:15 | 40.47277 | 94.09126 | 37093 ft | 461 kts | 133° |
| 2026-04-28 06:16 | 40.43941 | 94.14589 | 37093 ft | 462 kts | 133° |
| 2026-04-28 06:16 | 40.39917 | 94.21169 | 37093 ft | 463 kts | 133° |
| 2026-04-28 06:17 | 40.35895 | 94.27731 | 37093 ft | 464 kts | 133° |
| 2026-04-28 06:18 | 40.29860 | 94.37552 | 37093 ft | 465 kts | 133° |
| 2026-04-28 06:18 | 40.25785 | 94.44166 | 37093 ft | 466 kts | 133° |
| 2026-04-28 06:19 | 40.21736 | 94.50723 | 37093 ft | 467 kts | 133° |
| 2026-04-28 06:19 | 40.17650 | 94.57327 | 37093 ft | 468 kts | 133° |
| 2026-04-28 06:20 | 40.13573 | 94.63904 | 37092 ft | 469 kts | 133° |
| 2026-04-28 06:20 | 40.09787 | 94.70901 | 37092 ft | 475 kts | 123° |
| 2026-04-28 06:21 | 40.06845 | 94.78640 | 37092 ft | 477 kts | 120° |
| 2026-04-28 06:21 | 40.03894 | 94.86374 | 37092 ft | 477 kts | 121° |
| 2026-04-28 06:22 | 40.00963 | 94.94069 | 37093 ft | 477 kts | 121° |
| 2026-04-28 06:22 | 39.98022 | 95.01825 | 37093 ft | 478 kts | 121° |
| 2026-04-28 06:23 | 39.95080 | 95.09576 | 37093 ft | 478 kts | 122° |
| 2026-04-28 06:23 | 39.92159 | 95.17298 | 37093 ft | 479 kts | 121° |
| 2026-04-28 06:24 | 39.89216 | 95.25088 | 37092 ft | 479 kts | 121° |
| 2026-04-28 06:24 | 39.86268 | 95.32823 | 37132 ft | 479 kts | 121° |
| 2026-04-28 06:25 | 39.83317 | 95.40561 | 37225 ft | 478 kts | 121° |
| 2026-04-28 06:25 | 39.80384 | 95.48241 | 37320 ft | 477 kts | 121° |
| 2026-04-28 06:26 | 39.77450 | 95.55935 | 37390 ft | 476 kts | 121° |
| 2026-04-28 06:26 | 39.74481 | 95.63665 | 37389 ft | 477 kts | 121° |
| 2026-04-28 06:27 | 39.71507 | 95.71340 | 37390 ft | 478 kts | 122° |
| 2026-04-28 06:27 | 39.68521 | 95.79055 | 37392 ft | 478 kts | 122° |
| 2026-04-28 06:28 | 39.65579 | 95.86715 | 37390 ft | 479 kts | 122° |
| 2026-04-28 06:28 | 39.62606 | 95.94422 | 37390 ft | 479 kts | 122° |
| 2026-04-28 06:29 | 39.59588 | 96.02171 | 37390 ft | 480 kts | 122° |
| 2026-04-28 06:29 | 39.56571 | 96.09850 | 37391 ft | 480 kts | 122° |
| 2026-04-28 06:30 | 39.53562 | 96.17508 | 37389 ft | 481 kts | 122° |
| 2026-04-28 06:30 | 39.50524 | 96.25199 | 37390 ft | 481 kts | 122° |
| 2026-04-28 06:31 | 39.47456 | 96.32893 | 37391 ft | 482 kts | 122° |
| 2026-04-28 06:31 | 39.44404 | 96.40585 | 37391 ft | 483 kts | 122° |
| 2026-04-28 06:32 | 39.41351 | 96.48325 | 37390 ft | 483 kts | 122° |
| 2026-04-28 06:32 | 39.38308 | 96.56014 | 37391 ft | 484 kts | 122° |
| 2026-04-28 06:33 | 39.35218 | 96.63688 | 37390 ft | 484 kts | 122° |
| 2026-04-28 06:33 | 39.32102 | 96.71423 | 37389 ft | 484 kts | 123° |
| 2026-04-28 06:34 | 39.29024 | 96.79123 | 37391 ft | 483 kts | 123° |
| 2026-04-28 06:34 | 39.26022 | 96.86610 | 37389 ft | 483 kts | 122° |
| 2026-04-28 06:35 | 39.22971 | 96.94333 | 37390 ft | 483 kts | 122° |
| 2026-04-28 06:35 | 39.19931 | 97.02032 | 37390 ft | 483 kts | 122° |
| 2026-04-28 06:36 | 39.16858 | 97.09763 | 37390 ft | 484 kts | 123° |
| 2026-04-28 06:36 | 39.13809 | 97.17417 | 37390 ft | 485 kts | 123° |
| 2026-04-28 06:37 | 39.10730 | 97.25133 | 37391 ft | 486 kts | 123° |
| 2026-04-28 06:37 | 39.07646 | 97.32838 | 37390 ft | 487 kts | 123° |
| 2026-04-28 06:38 | 39.04538 | 97.40586 | 37390 ft | 487 kts | 123° |
| 2026-04-28 06:38 | 39.01447 | 97.48274 | 37390 ft | 488 kts | 123° |
| 2026-04-28 06:39 | 38.98327 | 97.56015 | 37390 ft | 489 kts | 123° |
| 2026-04-28 06:39 | 38.95188 | 97.63779 | 37391 ft | 491 kts | 123° |
| 2026-04-28 06:40 | 38.92043 | 97.71541 | 37389 ft | 491 kts | 124° |
| 2026-04-28 06:40 | 38.88882 | 97.79305 | 37390 ft | 491 kts | 124° |
| 2026-04-28 06:41 | 38.85733 | 97.87034 | 37390 ft | 492 kts | 124° |
| 2026-04-28 06:41 | 38.82581 | 97.94795 | 37389 ft | 492 kts | 124° |
| 2026-04-28 06:42 | 38.79404 | 98.02537 | 37389 ft | 493 kts | 125° |
| 2026-04-28 06:42 | 38.76205 | 98.10288 | 37390 ft | 493 kts | 125° |
| 2026-04-28 06:43 | 38.72997 | 98.18049 | 37390 ft | 494 kts | 125° |
| 2026-04-28 06:43 | 38.69802 | 98.25757 | 37391 ft | 495 kts | 124° |
| 2026-04-28 06:44 | 38.66577 | 98.33564 | 37391 ft | 495 kts | 124° |
| 2026-04-28 06:44 | 38.63385 | 98.41284 | 37389 ft | 496 kts | 124° |
| 2026-04-28 06:45 | 38.60149 | 98.49094 | 37391 ft | 496 kts | 124° |
| 2026-04-28 06:45 | 38.56922 | 98.56844 | 37389 ft | 495 kts | 124° |
| 2026-04-28 06:46 | 38.53693 | 98.64529 | 37390 ft | 494 kts | 125° |
| 2026-04-28 06:46 | 38.50418 | 98.72246 | 37390 ft | 494 kts | 126° |
| 2026-04-28 06:47 | 38.47192 | 98.79929 | 37390 ft | 494 kts | 125° |
| 2026-04-28 06:47 | 38.43961 | 98.87671 | 37390 ft | 495 kts | 125° |
| 2026-04-28 06:48 | 38.40729 | 98.95358 | 37390 ft | 495 kts | 125° |
| 2026-04-28 06:48 | 38.37455 | 99.03061 | 37390 ft | 495 kts | 126° |
| 2026-04-28 06:49 | 38.34183 | 99.10763 | 37390 ft | 496 kts | 125° |
| 2026-04-28 06:49 | 38.30899 | 99.18488 | 37391 ft | 497 kts | 126° |
| 2026-04-28 06:50 | 38.27621 | 99.26175 | 37390 ft | 498 kts | 126° |
| 2026-04-28 06:50 | 38.24319 | 99.33901 | 37390 ft | 499 kts | 126° |
| 2026-04-28 06:51 | 38.21004 | 99.41636 | 37390 ft | 499 kts | 125° |
| 2026-04-28 06:51 | 38.17684 | 99.49367 | 37390 ft | 500 kts | 126° |
| 2026-04-28 06:52 | 38.14372 | 99.57059 | 37390 ft | 500 kts | 126° |
| 2026-04-28 06:52 | 38.11021 | 99.64821 | 37390 ft | 500 kts | 126° |
| 2026-04-28 06:53 | 38.07690 | 99.72523 | 37390 ft | 499 kts | 126° |
| 2026-04-28 06:53 | 38.04356 | 99.80206 | 37390 ft | 498 kts | 126° |
| 2026-04-28 06:54 | 38.01033 | 99.87846 | 37390 ft | 498 kts | 126° |
| 2026-04-28 06:54 | 37.97689 | 99.95517 | 37390 ft | 498 kts | 126° |
| 2026-04-28 06:55 | 37.94357 | 100.03142 | 37391 ft | 498 kts | 126° |
| 2026-04-28 06:55 | 37.91007 | 100.10792 | 37391 ft | 498 kts | 126° |
| 2026-04-28 06:56 | 37.87648 | 100.18438 | 37390 ft | 499 kts | 126° |
| 2026-04-28 06:56 | 37.84275 | 100.26105 | 37391 ft | 498 kts | 126° |
| 2026-04-28 06:57 | 37.80928 | 100.33695 | 37390 ft | 498 kts | 126° |
| 2026-04-28 06:57 | 37.77555 | 100.41320 | 37390 ft | 499 kts | 126° |
| 2026-04-28 06:58 | 37.74155 | 100.48991 | 37389 ft | 499 kts | 126° |
| 2026-04-28 06:58 | 37.70793 | 100.56561 | 37389 ft | 498 kts | 126° |
| 2026-04-28 06:59 | 37.67397 | 100.64188 | 37390 ft | 498 kts | 126° |
| 2026-04-28 06:59 | 37.64047 | 100.71787 | 37389 ft | 498 kts | 125° |
| 2026-04-28 07:00 | 37.60831 | 100.79527 | 37390 ft | 499 kts | 125° |
| 2026-04-28 07:00 | 37.57599 | 100.87221 | 37389 ft | 499 kts | 125° |
| 2026-04-28 07:01 | 37.54334 | 100.94946 | 37391 ft | 500 kts | 125° |
| 2026-04-28 07:01 | 37.51081 | 101.02653 | 37391 ft | 500 kts | 126° |
| 2026-04-28 07:02 | 37.47825 | 101.10321 | 37390 ft | 501 kts | 126° |
| 2026-04-28 07:02 | 37.44511 | 101.18069 | 37388 ft | 502 kts | 126° |
| 2026-04-28 07:03 | 37.41225 | 101.25730 | 37390 ft | 502 kts | 126° |
| 2026-04-28 07:03 | 37.37929 | 101.33418 | 37390 ft | 501 kts | 126° |
| 2026-04-28 07:04 | 37.34636 | 101.41134 | 37389 ft | 501 kts | 125° |
| 2026-04-28 07:04 | 37.31414 | 101.48896 | 37389 ft | 504 kts | 122° |
| 2026-04-28 07:05 | 37.28879 | 101.57158 | 37392 ft | 514 kts | 112° |
| 2026-04-28 07:05 | 37.26886 | 101.65772 | 37389 ft | 515 kts | 112° |
| 2026-04-28 07:06 | 37.24827 | 101.74384 | 37390 ft | 513 kts | 113° |
| 2026-04-28 07:06 | 37.22826 | 101.82926 | 37389 ft | 514 kts | 112° |
| 2026-04-28 07:07 | 37.20856 | 101.91510 | 37390 ft | 514 kts | 112° |
| 2026-04-28 07:07 | 37.18856 | 102.00092 | 37387 ft | 514 kts | 112° |
| 2026-04-28 07:08 | 37.16846 | 102.08697 | 37390 ft | 515 kts | 112° |
| 2026-04-28 07:08 | 37.14882 | 102.17231 | 37389 ft | 514 kts | 112° |
| 2026-04-28 07:09 | 37.12808 | 102.25754 | 37389 ft | 510 kts | 117° |
| 2026-04-28 07:09 | 37.09992 | 102.33831 | 37391 ft | 502 kts | 126° |
| 2026-04-28 07:10 | 37.06446 | 102.41303 | 37391 ft | 497 kts | 129° |
| 2026-04-28 07:10 | 37.02870 | 102.48653 | 37391 ft | 498 kts | 129° |
| 2026-04-28 07:11 | 36.99259 | 102.56027 | 37390 ft | 496 kts | 130° |
| 2026-04-28 07:11 | 36.95627 | 102.63306 | 37391 ft | 497 kts | 130° |
| 2026-04-28 07:12 | 36.91988 | 102.70588 | 37389 ft | 494 kts | 131° |
| 2026-04-28 07:12 | 36.88331 | 102.77869 | 37391 ft | 494 kts | 131° |
| 2026-04-28 07:13 | 36.84685 | 102.85103 | 37391 ft | 495 kts | 131° |
| 2026-04-28 07:13 | 36.81112 | 102.92433 | 37389 ft | 501 kts | 126° |
| 2026-04-28 07:14 | 36.78079 | 103.00323 | 37389 ft | 506 kts | 123° |
| 2026-04-28 07:14 | 36.75065 | 103.08155 | 37389 ft | 506 kts | 123° |
| 2026-04-28 07:15 | 36.71979 | 103.16078 | 37390 ft | 507 kts | 123° |
| 2026-04-28 07:15 | 36.68910 | 103.23990 | 37391 ft | 509 kts | 123° |
| 2026-04-28 07:16 | 36.65826 | 103.31885 | 37390 ft | 510 kts | 123° |
| 2026-04-28 07:16 | 36.62733 | 103.39790 | 37390 ft | 511 kts | 123° |
| 2026-04-28 07:17 | 36.59615 | 103.47746 | 37390 ft | 511 kts | 123° |
| 2026-04-28 07:17 | 36.56212 | 103.55352 | 37391 ft | 497 kts | 135° |
| 2026-04-28 07:17 | 36.53972 | 103.58515 | 37391 ft | 482 kts | 147° |
| 2026-04-28 07:18 | 36.51377 | 103.61016 | 37393 ft | 467 kts | 158° |
| 2026-04-28 07:18 | 36.48562 | 103.62928 | 37392 ft | 456 kts | 166° |
| 2026-04-28 07:18 | 36.45681 | 103.64269 | 37390 ft | 441 kts | 176° |
| 2026-04-28 07:19 | 36.39751 | 103.65855 | 37389 ft | 436 kts | 179° |
| 2026-04-28 07:19 | 36.33837 | 103.67585 | 37390 ft | 437 kts | 178° |
| 2026-04-28 07:20 | 36.27970 | 103.69259 | 37389 ft | 437 kts | 178° |
| 2026-04-28 07:20 | 36.22071 | 103.70927 | 37390 ft | 437 kts | 178° |
| 2026-04-28 07:21 | 36.16159 | 103.72595 | 37390 ft | 437 kts | 178° |
| 2026-04-28 07:21 | 36.10251 | 103.74255 | 37390 ft | 436 kts | 178° |
| 2026-04-28 07:22 | 36.01403 | 103.76733 | 37391 ft | 437 kts | 178° |
| 2026-04-28 07:22 | 35.95497 | 103.78384 | 37390 ft | 436 kts | 178° |
| 2026-04-28 07:23 | 35.89632 | 103.80020 | 37389 ft | 437 kts | 178° |
| 2026-04-28 07:23 | 35.83698 | 103.81673 | 37390 ft | 437 kts | 178° |
| 2026-04-28 07:24 | 35.77819 | 103.83308 | 37390 ft | 437 kts | 178° |
| 2026-04-28 07:24 | 35.71883 | 103.84957 | 37390 ft | 437 kts | 178° |
| 2026-04-28 07:25 | 35.65997 | 103.86589 | 37390 ft | 436 kts | 178° |
| 2026-04-28 07:25 | 35.60116 | 103.88216 | 37390 ft | 436 kts | 178° |
| 2026-04-28 07:26 | 35.54224 | 103.89844 | 37391 ft | 436 kts | 178° |
| 2026-04-28 07:26 | 35.48313 | 103.91476 | 37389 ft | 437 kts | 178° |
| 2026-04-28 07:27 | 35.42388 | 103.93108 | 37390 ft | 437 kts | 178° |
| 2026-04-28 07:27 | 35.36491 | 103.94730 | 37389 ft | 437 kts | 178° |
| 2026-04-28 07:28 | 35.30584 | 103.96353 | 37390 ft | 437 kts | 178° |
| 2026-04-28 07:28 | 35.24668 | 103.97977 | 37390 ft | 436 kts | 178° |
| 2026-04-28 07:29 | 35.18774 | 103.99590 | 37390 ft | 437 kts | 178° |
| 2026-04-28 07:29 | 35.12867 | 104.01206 | 37391 ft | 437 kts | 178° |
| 2026-04-28 07:30 | 35.06974 | 104.02815 | 37390 ft | 437 kts | 178° |
| 2026-04-28 07:30 | 35.01044 | 104.04433 | 37390 ft | 436 kts | 178° |
| 2026-04-28 07:31 | 34.95150 | 104.06037 | 37390 ft | 436 kts | 178° |
| 2026-04-28 07:31 | 34.89263 | 104.07632 | 37390 ft | 436 kts | 177° |
| 2026-04-28 07:32 | 34.83383 | 104.09196 | 37390 ft | 434 kts | 177° |
| 2026-04-28 07:32 | 34.77509 | 104.10764 | 37390 ft | 435 kts | 177° |
| 2026-04-28 07:33 | 34.71607 | 104.12344 | 37390 ft | 434 kts | 177° |
| 2026-04-28 07:33 | 34.65730 | 104.13911 | 37390 ft | 435 kts | 177° |
| 2026-04-28 07:34 | 34.59856 | 104.15491 | 37391 ft | 435 kts | 177° |
| 2026-04-28 07:34 | 34.53968 | 104.17082 | 37389 ft | 435 kts | 177° |
| 2026-04-28 07:35 | 34.48092 | 104.18671 | 37389 ft | 435 kts | 176° |
| 2026-04-28 07:35 | 34.42216 | 104.20315 | 37390 ft | 436 kts | 176° |
| 2026-04-28 07:36 | 34.36302 | 104.21922 | 37391 ft | 435 kts | 177° |
| 2026-04-28 07:36 | 34.30436 | 104.23457 | 37390 ft | 434 kts | 177° |
| 2026-04-28 07:37 | 34.24538 | 104.25007 | 37390 ft | 435 kts | 177° |
| 2026-04-28 07:37 | 34.18649 | 104.26560 | 37392 ft | 436 kts | 177° |
| 2026-04-28 07:38 | 34.12740 | 104.28182 | 37390 ft | 436 kts | 176° |
| 2026-04-28 07:38 | 34.06854 | 104.29814 | 37391 ft | 436 kts | 177° |
| 2026-04-28 07:39 | 34.00964 | 104.31401 | 37390 ft | 436 kts | 176° |
| 2026-04-28 07:39 | 33.95053 | 104.32993 | 37390 ft | 437 kts | 176° |
| 2026-04-28 07:40 | 33.89173 | 104.34570 | 37391 ft | 435 kts | 176° |
| 2026-04-28 07:40 | 33.83258 | 104.36137 | 37391 ft | 436 kts | 176° |
| 2026-04-28 07:41 | 33.77349 | 104.37702 | 37390 ft | 437 kts | 177° |
| 2026-04-28 07:41 | 33.71465 | 104.39265 | 37389 ft | 435 kts | 177° |
| 2026-04-28 07:42 | 33.65584 | 104.40816 | 37390 ft | 436 kts | 176° |
| 2026-04-28 07:42 | 33.59661 | 104.42379 | 37390 ft | 436 kts | 176° |
| 2026-04-28 07:43 | 33.53780 | 104.43921 | 37337 ft | 436 kts | 177° |
| 2026-04-28 07:43 | 33.47868 | 104.45483 | 37276 ft | 434 kts | 176° |
| 2026-04-28 07:44 | 33.42004 | 104.47025 | 37228 ft | 433 kts | 177° |
| 2026-04-28 07:44 | 33.36124 | 104.48554 | 37228 ft | 434 kts | 177° |
| 2026-04-28 07:45 | 33.30250 | 104.50088 | 37227 ft | 436 kts | 177° |
| 2026-04-28 07:45 | 33.24329 | 104.51628 | 37228 ft | 437 kts | 177° |
| 2026-04-28 07:46 | 33.18424 | 104.53181 | 37229 ft | 436 kts | 176° |
| 2026-04-28 07:46 | 33.12516 | 104.54720 | 37227 ft | 434 kts | 177° |
| 2026-04-28 07:47 | 33.06659 | 104.56235 | 37228 ft | 436 kts | 176° |
| 2026-04-28 07:47 | 33.00722 | 104.57794 | 37228 ft | 438 kts | 176° |
| 2026-04-28 07:48 | 32.94792 | 104.59277 | 37228 ft | 439 kts | 175° |
| 2026-04-28 07:48 | 32.88831 | 104.60764 | 37229 ft | 441 kts | 175° |
| 2026-04-28 07:49 | 32.82843 | 104.62286 | 37229 ft | 440 kts | 175° |
| 2026-04-28 07:49 | 32.76872 | 104.63810 | 37227 ft | 439 kts | 175° |
| 2026-04-28 07:50 | 32.70932 | 104.65337 | 37228 ft | 439 kts | 176° |
| 2026-04-28 07:50 | 32.64989 | 104.66839 | 37229 ft | 439 kts | 175° |
| 2026-04-28 07:51 | 32.59040 | 104.68379 | 37228 ft | 440 kts | 175° |
| 2026-04-28 07:51 | 32.53081 | 104.69900 | 37228 ft | 440 kts | 176° |
| 2026-04-28 07:52 | 32.47102 | 104.71426 | 37227 ft | 439 kts | 175° |
| 2026-04-28 07:52 | 32.41146 | 104.72957 | 37227 ft | 440 kts | 175° |
| 2026-04-28 07:53 | 32.35199 | 104.74479 | 37229 ft | 439 kts | 176° |
| 2026-04-28 07:53 | 32.29280 | 104.75994 | 37227 ft | 438 kts | 175° |
| 2026-04-28 07:54 | 32.23309 | 104.77535 | 37228 ft | 439 kts | 175° |
| 2026-04-28 07:54 | 32.17384 | 104.79030 | 37227 ft | 440 kts | 175° |
| 2026-04-28 07:55 | 32.11398 | 104.80543 | 37228 ft | 439 kts | 176° |
| 2026-04-28 07:55 | 32.05466 | 104.82039 | 37229 ft | 440 kts | 175° |
| 2026-04-28 07:56 | 31.99504 | 104.83557 | 37228 ft | 441 kts | 176° |
| 2026-04-28 07:56 | 31.93553 | 104.85055 | 37226 ft | 439 kts | 176° |
| 2026-04-28 07:57 | 31.87600 | 104.86554 | 37228 ft | 438 kts | 175° |
| 2026-04-28 07:57 | 31.81623 | 104.88075 | 37230 ft | 440 kts | 175° |
| 2026-04-28 07:58 | 31.75662 | 104.89583 | 37227 ft | 440 kts | 175° |
| 2026-04-28 07:58 | 31.69703 | 104.91089 | 37227 ft | 439 kts | 176° |
| 2026-04-28 07:59 | 31.63744 | 104.92576 | 37229 ft | 440 kts | 175° |
| 2026-04-28 07:59 | 31.57778 | 104.94076 | 37227 ft | 441 kts | 175° |
| 2026-04-28 08:00 | 31.51816 | 104.95568 | 37228 ft | 440 kts | 175° |
| 2026-04-28 08:00 | 31.45859 | 104.97066 | 37228 ft | 441 kts | 175° |
| 2026-04-28 08:01 | 31.39906 | 104.98572 | 37227 ft | 441 kts | 175° |
| 2026-04-28 08:01 | 31.33901 | 105.00088 | 37228 ft | 441 kts | 175° |
| 2026-04-28 08:02 | 31.27928 | 105.01578 | 37227 ft | 442 kts | 175° |
| 2026-04-28 08:02 | 31.21924 | 105.03096 | 37226 ft | 442 kts | 175° |
| 2026-04-28 08:03 | 31.15970 | 105.04571 | 37228 ft | 442 kts | 175° |
| 2026-04-28 08:03 | 31.09979 | 105.06055 | 37229 ft | 442 kts | 175° |
| 2026-04-28 08:04 | 31.03965 | 105.07558 | 37227 ft | 443 kts | 175° |
| 2026-04-28 08:04 | 30.97962 | 105.09068 | 37229 ft | 444 kts | 174° |
| 2026-04-28 08:05 | 30.91922 | 105.10569 | 37227 ft | 444 kts | 173° |
| 2026-04-28 08:05 | 30.85901 | 105.12057 | 37228 ft | 444 kts | 173° |
| 2026-04-28 08:06 | 30.79901 | 105.13541 | 37228 ft | 444 kts | 172° |
| 2026-04-28 08:06 | 30.73893 | 105.15025 | 37227 ft | 444 kts | 172° |
| 2026-04-28 08:07 | 30.67860 | 105.16520 | 37228 ft | 444 kts | 173° |
| 2026-04-28 08:07 | 30.61863 | 105.17990 | 37228 ft | 444 kts | 172° |
| 2026-04-28 08:08 | 30.55825 | 105.19476 | 37228 ft | 443 kts | 173° |
| 2026-04-28 08:08 | 30.49827 | 105.20951 | 37228 ft | 444 kts | 172° |
| 2026-04-28 08:09 | 30.43800 | 105.22451 | 37227 ft | 445 kts | 172° |
| 2026-04-28 08:09 | 30.37830 | 105.23963 | 37223 ft | 443 kts | 172° |
| 2026-04-28 08:10 | 30.31791 | 105.25459 | 37194 ft | 445 kts | 172° |
| 2026-04-28 08:10 | 30.25755 | 105.26900 | 37159 ft | 445 kts | 173° |
| 2026-04-28 08:11 | 30.19720 | 105.28360 | 37136 ft | 443 kts | 172° |
| 2026-04-28 08:11 | 30.13730 | 105.29858 | 37128 ft | 444 kts | 172° |
| 2026-04-28 08:12 | 30.07715 | 105.31338 | 37121 ft | 445 kts | 173° |
| 2026-04-28 08:12 | 30.01687 | 105.32765 | 37112 ft | 443 kts | 173° |
| 2026-04-28 08:13 | 29.95653 | 105.34199 | 37104 ft | 444 kts | 173° |
| 2026-04-28 08:13 | 29.89635 | 105.35673 | 37096 ft | 444 kts | 172° |
| 2026-04-28 08:14 | 29.83646 | 105.37176 | 37092 ft | 443 kts | 172° |
| 2026-04-28 08:14 | 29.77628 | 105.38657 | 37093 ft | 444 kts | 172° |
| 2026-04-28 08:15 | 29.71588 | 105.40117 | 37093 ft | 444 kts | 172° |
| 2026-04-28 08:15 | 29.65577 | 105.41573 | 37093 ft | 444 kts | 172° |
| 2026-04-28 08:16 | 29.59527 | 105.43043 | 37092 ft | 443 kts | 172° |
| 2026-04-28 08:16 | 29.53525 | 105.44478 | 37093 ft | 444 kts | 173° |
| 2026-04-28 08:17 | 29.47535 | 105.45892 | 37093 ft | 443 kts | 173° |
| 2026-04-28 08:17 | 29.41488 | 105.47304 | 37119 ft | 444 kts | 173° |
| 2026-04-28 08:18 | 29.35453 | 105.48726 | 37120 ft | 444 kts | 173° |
| 2026-04-28 08:18 | 29.29453 | 105.50150 | 37120 ft | 443 kts | 173° |
| 2026-04-28 08:19 | 29.23413 | 105.51592 | 37120 ft | 444 kts | 172° |
| 2026-04-28 08:19 | 29.17412 | 105.53034 | 37119 ft | 445 kts | 172° |
| 2026-04-28 08:20 | 29.11403 | 105.54492 | 37121 ft | 443 kts | 172° |
| 2026-04-28 08:20 | 29.05367 | 105.55970 | 37120 ft | 446 kts | 172° |
| 2026-04-28 08:21 | 28.99310 | 105.57433 | 37120 ft | 449 kts | 172° |
| 2026-04-28 08:21 | 28.93209 | 105.58901 | 37120 ft | 452 kts | 172° |
| 2026-04-28 08:22 | 28.87052 | 105.60358 | 37119 ft | 453 kts | 172° |
| 2026-04-28 08:22 | 28.80882 | 105.61787 | 37120 ft | 452 kts | 173° |
| 2026-04-28 08:23 | 28.74780 | 105.63207 | 37120 ft | 452 kts | 172° |
| 2026-04-28 08:23 | 28.68647 | 105.64660 | 37119 ft | 452 kts | 172° |
| 2026-04-28 08:24 | 28.62498 | 105.66112 | 37120 ft | 452 kts | 173° |
| 2026-04-28 08:24 | 28.56379 | 105.67539 | 37120 ft | 453 kts | 173° |
| 2026-04-28 08:25 | 28.50206 | 105.69039 | 37119 ft | 452 kts | 172° |
| 2026-04-28 08:26 | 28.41052 | 105.71240 | 37120 ft | 452 kts | 173° |
| 2026-04-28 08:26 | 28.34907 | 105.72702 | 37119 ft | 452 kts | 173° |
| 2026-04-28 08:27 | 28.28765 | 105.74162 | 37120 ft | 451 kts | 173° |
| 2026-04-28 08:27 | 28.22643 | 105.75597 | 37121 ft | 452 kts | 173° |
| 2026-04-28 08:28 | 28.16526 | 105.77031 | 37119 ft | 453 kts | 173° |
| 2026-04-28 08:28 | 28.10397 | 105.78477 | 37119 ft | 451 kts | 173° |
| 2026-04-28 08:29 | 28.04266 | 105.79906 | 37121 ft | 453 kts | 173° |
| 2026-04-28 08:29 | 27.98099 | 105.81337 | 37119 ft | 452 kts | 173° |
| 2026-04-28 08:30 | 27.91974 | 105.82770 | 37121 ft | 452 kts | 173° |
| 2026-04-28 08:30 | 27.85823 | 105.84189 | 37120 ft | 452 kts | 173° |
| 2026-04-28 08:31 | 27.79704 | 105.85620 | 37120 ft | 452 kts | 173° |
| 2026-04-28 08:31 | 27.73583 | 105.87056 | 37118 ft | 452 kts | 173° |
| 2026-04-28 08:32 | 27.67457 | 105.88485 | 37120 ft | 452 kts | 173° |
| 2026-04-28 08:32 | 27.61292 | 105.89877 | 37119 ft | 453 kts | 173° |
| 2026-04-28 08:33 | 27.55133 | 105.91242 | 37119 ft | 452 kts | 173° |
| 2026-04-28 08:33 | 27.49001 | 105.92637 | 37120 ft | 451 kts | 173° |
| 2026-04-28 08:34 | 27.42858 | 105.94039 | 37120 ft | 453 kts | 173° |
| 2026-04-28 08:34 | 27.36693 | 105.95454 | 37119 ft | 452 kts | 173° |
| 2026-04-28 08:35 | 27.30563 | 105.96860 | 37120 ft | 452 kts | 173° |
| 2026-04-28 08:35 | 27.24438 | 105.98270 | 37119 ft | 453 kts | 173° |
| 2026-04-28 08:36 | 27.18271 | 105.99683 | 37121 ft | 451 kts | 173° |
| 2026-04-28 08:36 | 27.12137 | 106.01081 | 37120 ft | 453 kts | 173° |
| 2026-04-28 08:37 | 27.06017 | 106.02497 | 37120 ft | 452 kts | 173° |
| 2026-04-28 08:37 | 26.99862 | 106.03822 | 37120 ft | 451 kts | 174° |
| 2026-04-28 08:38 | 26.93672 | 106.04960 | 37120 ft | 453 kts | 174° |
| 2026-04-28 08:38 | 26.87462 | 106.06133 | 37120 ft | 455 kts | 174° |
| 2026-04-28 08:39 | 26.81260 | 106.07298 | 37120 ft | 455 kts | 174° |
| 2026-04-28 08:39 | 26.75058 | 106.08460 | 37120 ft | 454 kts | 174° |
| 2026-04-28 08:40 | 26.68835 | 106.09624 | 37120 ft | 454 kts | 174° |
| 2026-04-28 08:40 | 26.62635 | 106.10783 | 37120 ft | 454 kts | 174° |
| 2026-04-28 08:41 | 26.56429 | 106.11942 | 37120 ft | 455 kts | 174° |
| 2026-04-28 08:41 | 26.50187 | 106.13106 | 37120 ft | 454 kts | 174° |
| 2026-04-28 08:42 | 26.44003 | 106.14257 | 37120 ft | 454 kts | 174° |
| 2026-04-28 08:42 | 26.37816 | 106.15408 | 37120 ft | 454 kts | 174° |
| 2026-04-28 08:43 | 26.31585 | 106.16567 | 37120 ft | 454 kts | 174° |
| 2026-04-28 08:43 | 26.25386 | 106.17722 | 37120 ft | 454 kts | 174° |
| 2026-04-28 08:44 | 26.19179 | 106.18878 | 37120 ft | 454 kts | 174° |
| 2026-04-28 08:44 | 26.12995 | 106.20029 | 37120 ft | 454 kts | 174° |
| 2026-04-28 08:45 | 26.06771 | 106.21184 | 37120 ft | 454 kts | 174° |
| 2026-04-28 08:45 | 26.00545 | 106.22340 | 37120 ft | 454 kts | 174° |
| 2026-04-28 08:46 | 25.94356 | 106.23488 | 37120 ft | 454 kts | 174° |
| 2026-04-28 08:46 | 25.88173 | 106.24632 | 37120 ft | 454 kts | 174° |
| 2026-04-28 08:47 | 25.81961 | 106.25781 | 37120 ft | 454 kts | 174° |
| 2026-04-28 08:47 | 25.75736 | 106.26931 | 37120 ft | 454 kts | 174° |
| 2026-04-28 08:48 | 25.69545 | 106.28074 | 37120 ft | 454 kts | 174° |
| 2026-04-28 08:48 | 25.63318 | 106.29222 | 37120 ft | 454 kts | 174° |
| 2026-04-28 08:49 | 25.57135 | 106.30360 | 37120 ft | 454 kts | 174° |
| 2026-04-28 08:49 | 25.50914 | 106.31506 | 37120 ft | 454 kts | 174° |
| 2026-04-28 08:50 | 25.44736 | 106.32641 | 37120 ft | 454 kts | 174° |
| 2026-04-28 08:50 | 25.38508 | 106.33785 | 37120 ft | 454 kts | 174° |
| 2026-04-28 08:51 | 25.32288 | 106.34925 | 37120 ft | 454 kts | 174° |
| 2026-04-28 08:51 | 25.26102 | 106.36059 | 37120 ft | 454 kts | 174° |
| 2026-04-28 08:52 | 25.19878 | 106.37198 | 37120 ft | 454 kts | 174° |
| 2026-04-28 08:52 | 25.13670 | 106.38333 | 37120 ft | 454 kts | 174° |
| 2026-04-28 08:53 | 25.07465 | 106.39466 | 37120 ft | 454 kts | 173° |
| 2026-04-28 08:53 | 25.01271 | 106.40596 | 37120 ft | 454 kts | 172° |
| 2026-04-28 08:54 | 24.95068 | 106.41724 | 37120 ft | 452 kts | 172° |
| 2026-04-28 08:54 | 24.88903 | 106.42838 | 37120 ft | 451 kts | 172° |
| 2026-04-28 08:55 | 24.82761 | 106.43948 | 37120 ft | 451 kts | 172° |
| 2026-04-28 08:55 | 24.76578 | 106.45064 | 37120 ft | 452 kts | 172° |
| 2026-04-28 08:56 | 24.70387 | 106.46181 | 37120 ft | 452 kts | 172° |
| 2026-04-28 08:56 | 24.64232 | 106.47290 | 37120 ft | 452 kts | 172° |
| 2026-04-28 08:57 | 24.58022 | 106.48408 | 37120 ft | 452 kts | 172° |
| 2026-04-28 08:57 | 24.51861 | 106.49516 | 37120 ft | 452 kts | 172° |
| 2026-04-28 08:58 | 24.45665 | 106.50629 | 37120 ft | 452 kts | 172° |
| 2026-04-28 08:58 | 24.39503 | 106.51736 | 37120 ft | 452 kts | 172° |
| 2026-04-28 08:59 | 24.33327 | 106.52844 | 37120 ft | 452 kts | 172° |
| 2026-04-28 08:59 | 24.27135 | 106.53953 | 37061 ft | 453 kts | 172° |
| 2026-04-28 09:00 | 24.20969 | 106.55057 | 36957 ft | 452 kts | 172° |
| 2026-04-28 09:00 | 24.14792 | 106.56162 | 36856 ft | 451 kts | 172° |
| 2026-04-28 09:01 | 24.08635 | 106.57262 | 36850 ft | 450 kts | 172° |
| 2026-04-28 09:01 | 24.02456 | 106.58364 | 36850 ft | 452 kts | 172° |
| 2026-04-28 09:02 | 23.96288 | 106.59547 | 36846 ft | 453 kts | 166° |
| 2026-04-28 09:02 | 23.93338 | 106.60674 | 36849 ft | 454 kts | 154° |
| 2026-04-28 09:02 | 23.90648 | 106.62518 | 36851 ft | 455 kts | 141° |
| 2026-04-28 09:03 | 23.86253 | 106.67464 | 36848 ft | 457 kts | 133° |
| 2026-04-28 09:03 | 23.81928 | 106.72499 | 36850 ft | 457 kts | 134° |
| 2026-04-28 09:04 | 23.77572 | 106.77547 | 36849 ft | 457 kts | 134° |
| 2026-04-28 09:04 | 23.73259 | 106.82578 | 36849 ft | 457 kts | 134° |
| 2026-04-28 09:05 | 23.68930 | 106.87629 | 37067 ft | 453 kts | 133° |
| 2026-04-28 09:05 | 23.64616 | 106.92662 | 37067 ft | 457 kts | 133° |
| 2026-04-28 09:06 | 23.60286 | 106.97713 | 37066 ft | 460 kts | 133° |
| 2026-04-28 09:06 | 23.55930 | 107.02791 | 37065 ft | 462 kts | 133° |
| 2026-04-28 09:07 | 23.51538 | 107.07907 | 37066 ft | 461 kts | 133° |
| 2026-04-28 09:07 | 23.47193 | 107.12962 | 37066 ft | 461 kts | 133° |
| 2026-04-28 09:08 | 23.42805 | 107.18064 | 37066 ft | 461 kts | 133° |
| 2026-04-28 09:08 | 23.38448 | 107.23124 | 37066 ft | 461 kts | 133° |
| 2026-04-28 09:09 | 23.34072 | 107.28200 | 37066 ft | 461 kts | 133° |
| 2026-04-28 09:09 | 23.29712 | 107.33253 | 37066 ft | 461 kts | 133° |
| 2026-04-28 09:10 | 23.25327 | 107.38331 | 37066 ft | 461 kts | 133° |
| 2026-04-28 09:10 | 23.20939 | 107.43406 | 37066 ft | 461 kts | 133° |
| 2026-04-28 09:11 | 23.16582 | 107.48441 | 37066 ft | 461 kts | 133° |
| 2026-04-28 09:11 | 23.12189 | 107.53511 | 37066 ft | 461 kts | 133° |
| 2026-04-28 09:12 | 23.07795 | 107.58578 | 37066 ft | 461 kts | 133° |
| 2026-04-28 09:12 | 23.03437 | 107.63598 | 37066 ft | 461 kts | 133° |
| 2026-04-28 09:13 | 22.99058 | 107.68640 | 37066 ft | 460 kts | 133° |
| 2026-04-28 09:13 | 22.94654 | 107.73708 | 37066 ft | 460 kts | 133° |
| 2026-04-28 09:14 | 22.90299 | 107.78715 | 37066 ft | 460 kts | 133° |
| 2026-04-28 09:14 | 22.85893 | 107.83774 | 37066 ft | 460 kts | 133° |
| 2026-04-28 09:15 | 22.81518 | 107.88795 | 37066 ft | 460 kts | 133° |
| 2026-04-28 09:15 | 22.77125 | 107.93830 | 37066 ft | 460 kts | 133° |
| 2026-04-28 09:16 | 22.72759 | 107.98828 | 37066 ft | 460 kts | 133° |
| 2026-04-28 09:16 | 22.68381 | 108.03836 | 37066 ft | 460 kts | 133° |
| 2026-04-28 09:17 | 22.63980 | 108.08865 | 37066 ft | 460 kts | 133° |
| 2026-04-28 09:17 | 22.59088 | 108.13259 | 37065 ft | 461 kts | 150° |
| 2026-04-28 09:17 | 22.56194 | 108.14693 | 37066 ft | 461 kts | 162° |
| 2026-04-28 09:18 | 22.53098 | 108.15523 | 37067 ft | 461 kts | 172° |
| 2026-04-28 09:18 | 22.46724 | 108.16260 | 37066 ft | 461 kts | 174° |
| 2026-04-28 09:19 | 22.40372 | 108.17030 | 37066 ft | 461 kts | 174° |
| 2026-04-28 09:19 | 22.34052 | 108.17778 | 37066 ft | 460 kts | 174° |
| 2026-04-28 09:20 | 22.27687 | 108.18513 | 37066 ft | 460 kts | 174° |
| 2026-04-28 09:20 | 22.24502 | 108.18880 | 36855 ft | 464 kts | 174° |
| 2026-04-28 09:20 | 22.21329 | 108.19244 | 36853 ft | 460 kts | 174° |
| 2026-04-28 09:21 | 22.15015 | 108.19965 | 36850 ft | 459 kts | 174° |
| 2026-04-28 09:21 | 22.08673 | 108.20688 | 36850 ft | 461 kts | 174° |
| 2026-04-28 09:22 | 22.02329 | 108.21408 | 36850 ft | 461 kts | 174° |
| 2026-04-28 09:22 | 21.95976 | 108.22129 | 36849 ft | 461 kts | 174° |
| 2026-04-28 09:23 | 21.89615 | 108.22849 | 36849 ft | 460 kts | 174° |
| 2026-04-28 09:23 | 21.83296 | 108.23564 | 36850 ft | 460 kts | 174° |
| 2026-04-28 09:24 | 21.76957 | 108.24280 | 36850 ft | 461 kts | 174° |
| 2026-04-28 09:24 | 21.70586 | 108.24999 | 36850 ft | 461 kts | 174° |
| 2026-04-28 09:25 | 21.64255 | 108.25713 | 36850 ft | 461 kts | 174° |
| 2026-04-28 09:25 | 21.57888 | 108.26430 | 36849 ft | 461 kts | 174° |
| 2026-04-28 09:26 | 21.51555 | 108.27144 | 36850 ft | 461 kts | 174° |
| 2026-04-28 09:26 | 21.45212 | 108.27857 | 36850 ft | 461 kts | 174° |
| 2026-04-28 09:27 | 21.35804 | 108.28914 | 36850 ft | 461 kts | 174° |
| 2026-04-28 09:27 | 21.29431 | 108.29630 | 36849 ft | 461 kts | 174° |
| 2026-04-28 09:28 | 21.23082 | 108.30174 | 36849 ft | 460 kts | 180° |
| 2026-04-28 09:28 | 21.16764 | 108.29570 | 36850 ft | 459 kts | 190° |
| 2026-04-28 09:29 | 21.10499 | 108.28517 | 36849 ft | 459 kts | 189° |
| 2026-04-28 09:29 | 21.04190 | 108.27512 | 36850 ft | 459 kts | 188° |
| 2026-04-28 09:30 | 20.97919 | 108.26476 | 36849 ft | 456 kts | 188° |
| 2026-04-28 09:30 | 20.91690 | 108.25445 | 36849 ft | 452 kts | 188° |
| 2026-04-28 09:31 | 20.85517 | 108.24419 | 36850 ft | 453 kts | 188° |
| 2026-04-28 09:31 | 20.79308 | 108.23384 | 36850 ft | 454 kts | 188° |
| 2026-04-28 09:32 | 20.73066 | 108.22343 | 36849 ft | 454 kts | 188° |
| 2026-04-28 09:32 | 20.66865 | 108.21309 | 36850 ft | 454 kts | 188° |
| 2026-04-28 09:33 | 20.60641 | 108.20272 | 36850 ft | 453 kts | 188° |
| 2026-04-28 09:33 | 20.54431 | 108.19498 | 36847 ft | 452 kts | 178° |
| 2026-04-28 09:34 | 20.51323 | 108.19933 | 36850 ft | 450 kts | 163° |
| 2026-04-28 09:34 | 20.48441 | 108.21152 | 36853 ft | 449 kts | 150° |
| 2026-04-28 09:34 | 20.43526 | 108.25169 | 36853 ft | 448 kts | 134° |
| 2026-04-28 09:35 | 20.39138 | 108.29830 | 36849 ft | 448 kts | 135° |
| 2026-04-28 09:35 | 20.34646 | 108.34435 | 36850 ft | 447 kts | 135° |
| 2026-04-28 09:36 | 20.30222 | 108.39008 | 36850 ft | 447 kts | 135° |
| 2026-04-28 09:36 | 20.25745 | 108.43631 | 36849 ft | 447 kts | 135° |
| 2026-04-28 09:37 | 20.21306 | 108.48212 | 36850 ft | 447 kts | 135° |
| 2026-04-28 09:37 | 20.16862 | 108.52798 | 36859 ft | 447 kts | 135° |
| 2026-04-28 09:38 | 20.12411 | 108.57386 | 36879 ft | 447 kts | 135° |
| 2026-04-28 09:38 | 20.07927 | 108.62006 | 36896 ft | 447 kts | 135° |
| 2026-04-28 09:39 | 20.03478 | 108.66585 | 36905 ft | 448 kts | 135° |
| 2026-04-28 09:39 | 19.99012 | 108.71178 | 36906 ft | 448 kts | 135° |
| 2026-04-28 09:40 | 19.94560 | 108.75754 | 36911 ft | 447 kts | 135° |
| 2026-04-28 09:40 | 19.90095 | 108.80340 | 36914 ft | 447 kts | 135° |
| 2026-04-28 09:41 | 19.85619 | 108.84931 | 36915 ft | 447 kts | 135° |
| 2026-04-28 09:41 | 19.81158 | 108.89506 | 36914 ft | 447 kts | 135° |
| 2026-04-28 09:42 | 19.76695 | 108.94077 | 36917 ft | 447 kts | 135° |
| 2026-04-28 09:42 | 19.72251 | 108.98626 | 36921 ft | 447 kts | 135° |
| 2026-04-28 09:43 | 19.67777 | 109.03200 | 36923 ft | 449 kts | 134° |
| 2026-04-28 09:43 | 19.63263 | 109.07814 | 36921 ft | 451 kts | 134° |
| 2026-04-28 09:44 | 19.58748 | 109.12425 | 36922 ft | 453 kts | 134° |
| 2026-04-28 09:44 | 19.54122 | 109.16904 | 36925 ft | 457 kts | 141° |
| 2026-04-28 09:45 | 19.51409 | 109.18720 | 36927 ft | 461 kts | 152° |
| 2026-04-28 09:45 | 19.48409 | 109.19965 | 36707 ft | 470 kts | 162° |
| 2026-04-28 09:45 | 19.45249 | 109.20702 | 36070 ft | 468 kts | 168° |
| 2026-04-28 09:45 | 19.42106 | 109.21285 | 35448 ft | 456 kts | 168° |
| 2026-04-28 09:46 | 19.39026 | 109.21909 | 34822 ft | 446 kts | 167° |
| 2026-04-28 09:46 | 19.36055 | 109.22544 | 34204 ft | 439 kts | 167° |
| 2026-04-28 09:46 | 19.33082 | 109.23171 | 33581 ft | 437 kts | 167° |
| 2026-04-28 09:46 | 19.30128 | 109.23782 | 32960 ft | 435 kts | 167° |
| 2026-04-28 09:47 | 19.27167 | 109.24391 | 32333 ft | 432 kts | 167° |
| 2026-04-28 09:47 | 19.24233 | 109.24994 | 31705 ft | 428 kts | 167° |
| 2026-04-28 09:47 | 19.21339 | 109.25588 | 31078 ft | 423 kts | 167° |
| 2026-04-28 09:47 | 19.18513 | 109.26167 | 30458 ft | 418 kts | 167° |
| 2026-04-28 09:48 | 19.15687 | 109.26746 | 29832 ft | 412 kts | 167° |
| 2026-04-28 09:48 | 19.12912 | 109.27312 | 29209 ft | 408 kts | 166° |
| 2026-04-28 09:48 | 19.10128 | 109.27881 | 28577 ft | 403 kts | 166° |
| 2026-04-28 09:48 | 19.07417 | 109.28434 | 27956 ft | 399 kts | 166° |
| 2026-04-28 09:49 | 19.04735 | 109.28982 | 27334 ft | 395 kts | 166° |
| 2026-04-28 09:49 | 19.02068 | 109.29525 | 26709 ft | 390 kts | 166° |
| 2026-04-28 09:49 | 18.99421 | 109.30064 | 26081 ft | 385 kts | 166° |
| 2026-04-28 09:49 | 18.96842 | 109.30589 | 25458 ft | 379 kts | 166° |
| 2026-04-28 09:50 | 18.94263 | 109.31113 | 24826 ft | 372 kts | 166° |
| 2026-04-28 09:50 | 18.91784 | 109.31618 | 24209 ft | 367 kts | 166° |
| 2026-04-28 09:50 | 18.89288 | 109.32126 | 23579 ft | 362 kts | 166° |
| 2026-04-28 09:50 | 18.86855 | 109.32620 | 22956 ft | 357 kts | 166° |
| 2026-04-28 09:51 | 18.84424 | 109.33115 | 22327 ft | 353 kts | 165° |
| 2026-04-28 09:51 | 18.82056 | 109.33595 | 21707 ft | 350 kts | 165° |
| 2026-04-28 09:51 | 18.79685 | 109.34077 | 21081 ft | 346 kts | 165° |
| 2026-04-28 09:51 | 18.77359 | 109.34550 | 20459 ft | 342 kts | 165° |
| 2026-04-28 09:52 | 18.75047 | 109.35019 | 19834 ft | 339 kts | 165° |
| 2026-04-28 09:52 | 18.72750 | 109.35485 | 19206 ft | 334 kts | 165° |
| 2026-04-28 09:52 | 18.70484 | 109.35944 | 18579 ft | 330 kts | 165° |
| 2026-04-28 09:52 | 18.68263 | 109.36395 | 17957 ft | 326 kts | 165° |
| 2026-04-28 09:53 | 18.66042 | 109.36845 | 17327 ft | 323 kts | 165° |
| 2026-04-28 09:53 | 18.63890 | 109.37283 | 16709 ft | 319 kts | 165° |
| 2026-04-28 09:53 | 18.61710 | 109.37724 | 16076 ft | 315 kts | 165° |
| 2026-04-28 09:53 | 18.59607 | 109.38150 | 15458 ft | 311 kts | 165° |
| 2026-04-28 09:54 | 18.57484 | 109.38580 | 14826 ft | 307 kts | 164° |
| 2026-04-28 09:54 | 18.55416 | 109.38999 | 14203 ft | 303 kts | 164° |
| 2026-04-28 09:54 | 18.53375 | 109.39412 | 13580 ft | 300 kts | 164° |
| 2026-04-28 09:54 | 18.51356 | 109.39821 | 12956 ft | 296 kts | 164° |
| 2026-04-28 09:55 | 18.49354 | 109.40211 | 12329 ft | 293 kts | 168° |
| 2026-04-28 09:55 | 18.47314 | 109.40205 | 11704 ft | 296 kts | 181° |
| 2026-04-28 09:55 | 18.45295 | 109.39959 | 11222 ft | 290 kts | 180° |
| 2026-04-28 09:55 | 18.43301 | 109.39761 | 10924 ft | 290 kts | 180° |
| 2026-04-28 09:56 | 18.41297 | 109.39566 | 10554 ft | 293 kts | 180° |
| 2026-04-28 09:56 | 18.39265 | 109.39358 | 10228 ft | 290 kts | 180° |
| 2026-04-28 09:56 | 18.37277 | 109.39156 | 10012 ft | 288 kts | 180° |
| 2026-04-28 09:56 | 18.35294 | 109.38956 | 9816 ft | 289 kts | 180° |
| 2026-04-28 09:57 | 18.33283 | 109.38751 | 9614 ft | 288 kts | 181° |
| 2026-04-28 09:57 | 18.31325 | 109.38551 | 9410 ft | 282 kts | 181° |
| 2026-04-28 09:57 | 18.29426 | 109.38355 | 9203 ft | 266 kts | 180° |
| 2026-04-28 09:57 | 18.27618 | 109.38172 | 8997 ft | 259 kts | 180° |
| 2026-04-28 09:58 | 18.25823 | 109.37991 | 8685 ft | 257 kts | 180° |
| 2026-04-28 09:58 | 18.24061 | 109.37812 | 8349 ft | 256 kts | 182° |
| 2026-04-28 09:58 | 18.22357 | 109.37309 | 7969 ft | 263 kts | 205° |
| 2026-04-28 09:58 | 18.20984 | 109.35997 | 7609 ft | 271 kts | 234° |
| 2026-04-28 09:59 | 18.20272 | 109.34193 | 7312 ft | 272 kts | 257° |
| 2026-04-28 09:59 | 18.20011 | 109.32223 | 7019 ft | 270 kts | 261° |
| 2026-04-28 09:59 | 18.19761 | 109.30289 | 6715 ft | 267 kts | 260° |
| 2026-04-28 09:59 | 18.19501 | 109.28360 | 6395 ft | 266 kts | 260° |
| 2026-04-28 10:00 | 18.19249 | 109.26447 | 6091 ft | 263 kts | 261° |
| 2026-04-28 10:00 | 18.19002 | 109.24567 | 5745 ft | 258 kts | 261° |
| 2026-04-28 10:00 | 18.18760 | 109.22720 | 5378 ft | 251 kts | 262° |
| 2026-04-28 10:00 | 18.18847 | 109.20963 | 5121 ft | 237 kts | 290° |
| 2026-04-28 10:01 | 18.19692 | 109.19571 | 4960 ft | 220 kts | 319° |
| 2026-04-28 10:01 | 18.20950 | 109.18690 | 4813 ft | 216 kts | 344° |
| 2026-04-28 10:01 | 18.22408 | 109.18394 | 4697 ft | 213 kts | 357° |
| 2026-04-28 10:01 | 18.23855 | 109.18198 | 4539 ft | 207 kts | 356° |
| 2026-04-28 10:02 | 18.25247 | 109.18088 | 4326 ft | 191 kts | 12° |
| 2026-04-28 10:02 | 18.26400 | 109.18559 | 4146 ft | 176 kts | 41° |
| 2026-04-28 10:02 | 18.27049 | 109.19607 | 3965 ft | 172 kts | 76° |
| 2026-04-28 10:02 | 18.27377 | 109.20822 | 3715 ft | 175 kts | 76° |
| 2026-04-28 10:03 | 18.27656 | 109.22008 | 3471 ft | 161 kts | 79° |
| 2026-04-28 10:03 | 18.27882 | 109.23158 | 3240 ft | 159 kts | 80° |
| 2026-04-28 10:03 | 18.28079 | 109.24286 | 3027 ft | 159 kts | 83° |
| 2026-04-28 10:03 | 18.28240 | 109.25442 | 2804 ft | 159 kts | 83° |
| 2026-04-28 10:04 | 18.28392 | 109.26590 | 2584 ft | 158 kts | 83° |
| 2026-04-28 10:04 | 18.28543 | 109.27743 | 2364 ft | 158 kts | 83° |
| 2026-04-28 10:04 | 18.28692 | 109.28884 | 2147 ft | 158 kts | 83° |
| 2026-04-28 10:04 | 18.28840 | 109.30026 | 1929 ft | 156 kts | 83° |
| 2026-04-28 10:05 | 18.28983 | 109.31127 | 1734 ft | 151 kts | 83° |
| 2026-04-28 10:05 | 18.29125 | 109.32217 | 1516 ft | 150 kts | 83° |
| 2026-04-28 10:05 | 18.29266 | 109.33299 | 1314 ft | 150 kts | 83° |
| 2026-04-28 10:05 | 18.29403 | 109.34381 | 1097 ft | 151 kts | 83° |
| 2026-04-28 10:06 | 18.29535 | 109.35487 | 866 ft | 152 kts | 84° |
| 2026-04-28 10:06 | 18.29690 | 109.36581 | 684 ft | 151 kts | 81° |
| 2026-04-28 10:06 | 18.29849 | 109.37672 | 488 ft | 150 kts | 83° |
| 2026-04-28 10:06 | 18.29973 | 109.38744 | 297 ft | 149 kts | 82° |
| 2026-04-28 10:07 | 18.30115 | 109.39829 | 107 ft | 150 kts | 83° |
| 2026-04-28 10:07 | 18.30237 | 109.40758 | 101 ft | 96 kts | 82° |
| 2026-04-28 10:07 | 18.30296 | 109.41239 | 100 ft | 43 kts | 82° |
| 2026-04-28 10:07 | 18.30326 | 109.41480 | 100 ft | 31 kts | 84° |
| 2026-04-28 10:08 | 18.30373 | 109.41700 | 100 ft | 31 kts | 68° |
| 2026-04-28 10:08 | 18.30512 | 109.41866 | 100 ft | 23 kts | 4° |
| 2026-04-28 10:08 | 18.30537 | 109.41742 | 100 ft | 27 kts | 261° |
| 2026-04-28 10:08 | 18.30506 | 109.41505 | 100 ft | 37 kts | 263° |
| 2026-04-28 10:09 | 18.30473 | 109.41254 | 100 ft | 31 kts | 262° |
| 2026-04-28 10:09 | 18.30445 | 109.41044 | 100 ft | 21 kts | 262° |
| 2026-04-28 10:09 | 18.30467 | 109.40992 | 100 ft | 6 kts | 345° |
| 2026-04-28 10:09 | 18.30503 | 109.41007 | 100 ft | 5 kts | 74° |
| 2026-04-28 10:10 | 18.30512 | 109.41054 | 100 ft | 7 kts | 82° |
| 2026-04-28 10:10 | 18.30514 | 109.41079 | 100 ft | 1 kts | 83° |
| 2026-04-28 10:10 | 18.30514 | 109.41080 | 100 ft | 0 kts | 83° |